createdAt,value
2023-03-05T00:02:26.755Z,101564.56
2023-03-05T00:04:54.428Z,101547.47
2023-03-05T00:07:22.012Z,101561.72
2023-03-05T00:09:50.287Z,101549.66
2023-03-05T00:12:18.051Z,101561.38
2023-03-05T00:14:46.988Z,101544.78
2023-03-05T00:17:14.631Z,101545.81
2023-03-05T00:19:42.217Z,101540.69
2023-03-05T00:22:09.841Z,101540.25
2023-03-05T00:24:37.511Z,101538.31
2023-03-05T00:27:05.620Z,101528.63
2023-03-05T00:29:33.270Z,101531.38
2023-03-05T00:32:02.401Z,101529.84
2023-03-05T00:34:31.612Z,101523.13
2023-03-05T00:36:59.489Z,101526.59
2023-03-05T00:39:27.168Z,101524.22
2023-03-05T00:41:54.841Z,101520.66
2023-03-05T00:44:22.551Z,101519.81
2023-03-05T00:46:50.247Z,101520.88
2023-03-05T00:49:19.163Z,101512.28
2023-03-05T00:51:46.798Z,101508.69
2023-03-05T00:54:14.474Z,101514.78
2023-03-05T00:56:42.064Z,101513.34
2023-03-05T00:59:10.568Z,101514.19
2023-03-05T01:01:38.268Z,101498.41
2023-03-05T01:04:06.090Z,101502.13
2023-03-05T01:06:35.051Z,101500.13
2023-03-05T01:09:02.611Z,101500.13
2023-03-05T01:11:31.955Z,101498.00
2023-03-05T01:13:59.562Z,101487.31
2023-03-05T01:16:27.303Z,101493.69
2023-03-05T01:18:55.114Z,101494.53
2023-03-05T01:21:22.879Z,101479.81
2023-03-05T01:23:51.832Z,101483.53
2023-03-05T01:26:19.628Z,101481.25
2023-03-05T01:28:47.310Z,101473.75
2023-03-05T01:31:14.981Z,101465.97
2023-03-05T01:33:42.676Z,101472.06
2023-03-05T01:36:14.846Z,101471.47
2023-03-05T01:38:43.004Z,101460.97
2023-03-05T01:41:13.171Z,101465.28
2023-03-05T01:43:41.359Z,101464.19
2023-03-05T01:46:35.771Z,101464.19
2023-03-05T01:49:09.501Z,101460.84
2023-03-05T01:51:41.316Z,101456.16
2023-03-05T01:54:12.648Z,101465.63
2023-03-05T01:56:42.803Z,101450.53
2023-03-05T01:59:11.867Z,101454.84
2023-03-05T02:01:42.951Z,101450.53
2023-03-05T02:04:15.337Z,101443.50
2023-03-05T02:06:44.690Z,101443.13
2023-03-05T02:09:12.811Z,101447.56
2023-03-05T02:11:42.331Z,101442.44
2023-03-05T02:14:10.779Z,101439.66
2023-03-05T02:16:39.568Z,101433.31
2023-03-05T02:19:11.525Z,101430.19
2023-03-05T02:21:42.126Z,101420.50
2023-03-05T02:24:12.708Z,101422.78
2023-03-05T02:26:40.996Z,101423.13
2023-03-05T02:29:11.436Z,101425.78
2023-03-05T02:31:39.147Z,101420.50
2023-03-05T02:34:07.678Z,101414.41
2023-03-05T02:36:35.614Z,101416.09
2023-03-05T02:39:05.471Z,101417.78
2023-03-05T02:41:33.148Z,101408.66
2023-03-05T02:44:00.768Z,101410.78
2023-03-05T02:46:28.693Z,101405.50
2023-03-05T02:48:56.477Z,101405.50
2023-03-05T02:51:24.153Z,101408.16
2023-03-05T02:53:51.775Z,101406.75
2023-03-05T02:56:20.711Z,101406.00
2023-03-05T02:58:48.303Z,101402.53
2023-03-05T03:01:15.974Z,101408.41
2023-03-05T03:03:43.615Z,101398.97
2023-03-05T03:06:11.243Z,101395.03
2023-03-05T03:08:39.250Z,101399.84
2023-03-05T03:11:09.003Z,101391.25
2023-03-05T03:13:38.046Z,101389.59
2023-03-05T03:16:07.592Z,101395.09
2023-03-05T03:18:35.344Z,101384.25
2023-03-05T03:21:03.748Z,101391.69
2023-03-05T03:23:32.459Z,101384.97
2023-03-05T03:26:00.167Z,101374.81
2023-03-05T03:28:27.789Z,101385.03
2023-03-05T03:30:56.789Z,101386.09
2023-03-05T03:33:24.400Z,101381.06
2023-03-05T03:35:51.981Z,101369.84
2023-03-05T03:38:19.616Z,101368.91
2023-03-05T03:40:47.230Z,101363.66
2023-03-05T03:43:14.893Z,101358.50
2023-03-05T03:45:43.828Z,101356.72
2023-03-05T03:48:13.165Z,101357.41
2023-03-05T03:50:41.229Z,101347.88
2023-03-05T03:53:09.820Z,101346.09
2023-03-05T03:55:37.535Z,101352.16
2023-03-05T03:58:05.190Z,101340.94
2023-03-05T04:03:21.113Z,101340.69
2023-03-05T04:05:48.713Z,101349.28
2023-03-05T04:08:16.347Z,101343.78
2023-03-05T04:10:44.091Z,101342.97
2023-03-05T04:13:11.779Z,101348.53
2023-03-05T04:15:39.468Z,101342.47
2023-03-05T04:18:07.187Z,101344.94
2023-03-05T04:20:36.212Z,101336.94
2023-03-05T04:23:04.056Z,101341.13
2023-03-05T04:25:31.653Z,101333.94
2023-03-05T04:27:59.250Z,101332.13
2023-03-05T04:30:26.900Z,101327.72
2023-03-05T04:32:54.510Z,101327.59
2023-03-05T04:35:22.692Z,101306.44
2023-03-05T04:37:51.928Z,101315.03
2023-03-05T04:40:20.018Z,101307.13
2023-03-05T04:42:47.663Z,101312.63
2023-03-05T04:45:17.144Z,101308.84
2023-03-05T04:47:44.874Z,101298.13
2023-03-05T04:50:13.289Z,101291.69
2023-03-05T04:52:41.822Z,101294.13
2023-03-05T04:55:12.822Z,101289.13
2023-03-05T04:57:40.929Z,101295.22
2023-03-05T05:00:14.243Z,101294.13
2023-03-05T05:02:42.416Z,101292.44
2023-03-05T05:05:11.758Z,101297.00
2023-03-05T05:07:39.455Z,101310.03
2023-03-05T05:10:08.745Z,101299.63
2023-03-05T05:12:37.992Z,101297.13
2023-03-05T05:15:08.348Z,101291.03
2023-03-05T05:17:37.202Z,101289.38
2023-03-05T05:20:06.577Z,101286.97
2023-03-05T05:22:35.127Z,101295.13
2023-03-05T05:25:03.052Z,101286.41
2023-03-05T05:27:30.852Z,101292.38
2023-03-05T05:30:00.088Z,101286.03
2023-03-05T05:32:28.909Z,101284.34
2023-03-05T05:34:57.685Z,101281.38
2023-03-05T05:37:26.231Z,101277.91
2023-03-05T05:39:54.283Z,101274.03
2023-03-05T05:42:24.485Z,101270.47
2023-03-05T05:44:52.504Z,101273.22
2023-03-05T05:47:21.590Z,101274.28
2023-03-05T05:49:49.429Z,101285.41
2023-03-05T05:52:17.098Z,101276.41
2023-03-05T05:54:44.680Z,101279.03
2023-03-05T05:57:12.328Z,101277.44
2023-03-05T05:59:40.873Z,101281.28
2023-03-05T06:02:09.135Z,101274.56
2023-03-05T06:04:39.945Z,101277.91
2023-03-05T06:07:07.833Z,101278.84
2023-03-05T06:09:36.342Z,101279.09
2023-03-05T06:12:04.337Z,101278.50
2023-03-05T06:14:31.944Z,101285.59
2023-03-05T06:16:59.579Z,101283.19
2023-03-05T06:19:27.223Z,101280.06
2023-03-05T06:21:56.618Z,101280.06
2023-03-05T06:24:24.228Z,101279.81
2023-03-05T06:26:51.871Z,101277.75
2023-03-05T06:29:19.571Z,101274.19
2023-03-05T06:31:47.245Z,101276.75
2023-03-05T06:34:14.860Z,101275.56
2023-03-05T06:36:43.608Z,101269.78
2023-03-05T06:39:12.795Z,101264.38
2023-03-05T06:41:41.099Z,101257.94
2023-03-05T06:44:08.789Z,101266.00
2023-03-05T06:46:39.087Z,101259.72
2023-03-05T06:49:09.513Z,101252.91
2023-03-05T06:51:39.221Z,101257.53
2023-03-05T06:54:09.248Z,101254.56
2023-03-05T06:56:40.755Z,101262.72
2023-03-05T06:59:09.689Z,101249.38
2023-03-05T07:01:37.734Z,101248.44
2023-03-05T07:04:06.756Z,101248.03
2023-03-05T07:06:35.990Z,101254.28
2023-03-05T07:09:05.774Z,101247.19
2023-03-05T07:11:34.131Z,101247.03
2023-03-05T07:14:04.172Z,101242.31
2023-03-05T07:16:33.931Z,101252.88
2023-03-05T07:19:03.789Z,101241.34
2023-03-05T07:21:33.574Z,101234.81
2023-03-05T07:24:02.729Z,101243.72
2023-03-05T07:26:31.271Z,101243.31
2023-03-05T07:28:59.199Z,101248.03
2023-03-05T07:31:31.078Z,101239.13
2023-03-05T07:34:00.148Z,101235.69
2023-03-05T07:36:28.205Z,101237.59
2023-03-05T07:38:55.939Z,101239.56
2023-03-05T07:41:23.806Z,101239.78
2023-03-05T07:43:53.469Z,101233.38
2023-03-05T07:46:23.199Z,101240.69
2023-03-05T07:48:54.573Z,101231.53
2023-03-05T07:51:23.506Z,101231.06
2023-03-05T07:53:53.102Z,101230.06
2023-03-05T07:56:24.759Z,101224.69
2023-03-05T07:58:52.520Z,101221.22
2023-03-05T08:01:20.482Z,101219.09
2023-03-05T08:03:48.295Z,101210.72
2023-03-05T08:06:17.464Z,101220.69
2023-03-05T08:08:45.240Z,101220.84
2023-03-05T08:11:14.548Z,101209.91
2023-03-05T08:13:43.210Z,101216.41
2023-03-05T08:16:13.741Z,101213.44
2023-03-05T08:18:41.684Z,101219.38
2023-03-05T08:21:18.513Z,101213.22
2023-03-05T08:23:46.170Z,101215.69
2023-03-05T08:26:14.989Z,101212.31
2023-03-05T08:28:42.662Z,101208.81
2023-03-05T08:31:11.144Z,101203.56
2023-03-05T08:33:39.792Z,101212.03
2023-03-05T08:36:08.640Z,101216.41
2023-03-05T08:38:38.011Z,101209.78
2023-03-05T08:41:06.719Z,101207.44
2023-03-05T08:43:34.503Z,101203.75
2023-03-05T08:46:02.862Z,101206.66
2023-03-05T08:48:31.619Z,101200.56
2023-03-05T08:50:59.580Z,101196.19
2023-03-05T08:53:27.343Z,101205.69
2023-03-05T08:55:57.149Z,101199.16
2023-03-05T08:58:25.355Z,101203.81
2023-03-05T09:00:53.180Z,101200.44
2023-03-05T09:03:21.187Z,101201.56
2023-03-05T09:05:48.814Z,101187.91
2023-03-05T09:08:16.773Z,101186.94
2023-03-05T09:10:44.936Z,101188.31
2023-03-05T09:13:14.927Z,101186.78
2023-03-05T09:15:43.315Z,101188.00
2023-03-05T09:18:12.057Z,101182.66
2023-03-05T09:20:39.744Z,101177.22
2023-03-05T09:23:07.850Z,101183.31
2023-03-05T09:25:35.455Z,101179.00
2023-03-05T09:28:03.085Z,101178.72
2023-03-05T09:30:32.122Z,101173.41
2023-03-05T09:32:59.687Z,101177.28
2023-03-05T09:35:27.459Z,101169.56
2023-03-05T09:37:55.052Z,101174.59
2023-03-05T09:40:23.443Z,101182.94
2023-03-05T09:43:03.436Z,101171.13
2023-03-05T09:45:40.781Z,101183.81
2023-03-05T09:48:17.878Z,101181.47
2023-03-05T09:50:50.627Z,101173.22
2023-03-05T09:53:37.339Z,101175.91
2023-03-05T09:56:13.107Z,101172.69
2023-03-05T09:58:43.553Z,101171.63
2023-03-05T10:01:18.064Z,101164.78
2023-03-05T10:03:54.466Z,101159.63
2023-03-05T10:06:25.231Z,101161.78
2023-03-05T10:08:57.205Z,101172.19
2023-03-05T10:11:38.858Z,101148.09
2023-03-05T10:14:08.616Z,101152.25
2023-03-05T10:17:02.618Z,101145.25
2023-03-05T10:19:47.256Z,101146.66
2023-03-05T10:22:21.108Z,101141.53
2023-03-05T10:25:04.104Z,101132.09
2023-03-05T10:27:44.582Z,101131.41
2023-03-05T10:30:28.995Z,101124.63
2023-03-05T10:33:09.994Z,101124.31
2023-03-05T10:35:52.173Z,101134.72
2023-03-05T10:38:36.954Z,101129.41
2023-03-05T10:41:09.438Z,101119.78
2023-03-05T10:43:41.490Z,101133.91
2023-03-05T10:46:15.885Z,101139.03
2023-03-05T10:48:50.739Z,101129.16
2023-03-05T10:51:23.092Z,101110.88
2023-03-05T10:53:57.091Z,101105.59
2023-03-05T10:56:26.985Z,101099.25
2023-03-05T10:58:54.813Z,101108.97
2023-03-05T11:01:25.276Z,101099.63
2023-03-05T11:03:57.590Z,101083.63
2023-03-05T11:06:38.790Z,101097.44
2023-03-05T11:09:18.647Z,101094.94
2023-03-05T11:12:02.467Z,101091.09
2023-03-05T11:14:33.326Z,101092.16
2023-03-05T11:17:02.515Z,101087.06
2023-03-05T11:19:33.178Z,101084.28
2023-03-05T11:22:15.551Z,101090.63
2023-03-05T11:24:43.602Z,101077.50
2023-03-05T11:27:31.479Z,101076.66
2023-03-05T11:29:59.889Z,101074.78
2023-03-05T11:32:29.387Z,101076.22
2023-03-05T11:34:59.298Z,101079.50
2023-03-05T11:37:29.240Z,101085.41
2023-03-05T11:40:16.408Z,101068.22
2023-03-05T11:42:45.564Z,101075.53
2023-03-05T11:45:18.146Z,101071.09
2023-03-05T11:47:49.520Z,101074.72
2023-03-05T11:50:23.738Z,101091.88
2023-03-05T11:52:53.961Z,101089.06
2023-03-05T11:55:25.811Z,101071.50
2023-03-05T11:58:05.075Z,101074.06
2023-03-05T12:00:36.860Z,101069.88
2023-03-05T12:03:13.063Z,101068.88
2023-03-05T12:05:45.652Z,101059.94
2023-03-05T12:08:18.028Z,101059.88
2023-03-05T12:10:45.692Z,101064.22
2023-03-05T12:13:21.091Z,101056.44
2023-03-05T12:15:57.529Z,101046.25
2023-03-05T12:18:36.226Z,101045.56
2023-03-05T12:21:10.136Z,101029.34
2023-03-05T12:23:47.136Z,101032.31
2023-03-05T12:26:14.975Z,101039.22
2023-03-05T12:28:57.606Z,101033.81
2023-03-05T12:31:37.686Z,101033.50
2023-03-05T12:34:38.011Z,101020.81
2023-03-05T12:37:11.699Z,101038.00
2023-03-05T12:39:58.620Z,101052.94
2023-03-05T12:42:46.805Z,101045.22
2023-03-05T12:45:30.901Z,101035.25
2023-03-05T12:48:42.961Z,101034.09
2023-03-05T12:51:33.454Z,101023.56
2023-03-05T12:54:28.986Z,101013.34
2023-03-05T12:56:58.162Z,101009.56
2023-03-05T12:59:33.841Z,101001.34
2023-03-05T13:02:04.658Z,100999.06
2023-03-05T13:04:36.004Z,100990.63
2023-03-05T13:07:05.799Z,100985.75
2023-03-05T13:09:36.426Z,100982.19
2023-03-05T13:12:11.055Z,100992.16
2023-03-05T13:14:42.041Z,100979.03
2023-03-05T13:17:29.517Z,100992.22
2023-03-05T13:19:58.374Z,100984.38
2023-03-05T13:22:26.742Z,100973.69
2023-03-05T13:25:17.027Z,100963.13
2023-03-05T13:27:45.105Z,100967.09
2023-03-05T13:30:24.924Z,100965.97
2023-03-05T13:32:55.891Z,100965.66
2023-03-05T13:35:24.026Z,100963.19
2023-03-05T13:37:52.126Z,100957.91
2023-03-05T13:40:24.217Z,100962.34
2023-03-05T13:42:53.214Z,100963.56
2023-03-05T13:45:29.601Z,100947.19
2023-03-05T13:47:59.476Z,100946.69
2023-03-05T13:50:29.254Z,100945.97
2023-03-05T13:52:59.342Z,100940.09
2023-03-05T13:55:28.416Z,100929.25
2023-03-05T13:57:56.031Z,100934.38
2023-03-05T14:00:29.727Z,100930.16
2023-03-05T14:02:59.988Z,100924.94
2023-03-05T14:05:28.440Z,100927.06
2023-03-05T14:07:56.850Z,100938.41
2023-03-05T14:10:36.996Z,100937.44
2023-03-05T14:13:07.247Z,100927.19
2023-03-05T14:15:36.556Z,100930.00
2023-03-05T14:18:20.885Z,100918.13
2023-03-05T14:21:07.560Z,100930.91
2023-03-05T14:23:39.416Z,100917.31
2023-03-05T14:26:28.621Z,100923.06
2023-03-05T14:28:58.970Z,100908.97
2023-03-05T14:31:27.971Z,100922.50
2023-03-05T14:34:01.194Z,100911.53
2023-03-05T14:36:30.145Z,100914.47
2023-03-05T14:38:58.229Z,100902.31
2023-03-05T14:41:45.389Z,100903.16
2023-03-05T14:44:15.939Z,100904.22
2023-03-05T14:46:45.397Z,100899.53
2023-03-05T14:49:13.066Z,100896.72
2023-03-05T14:51:43.813Z,100885.75
2023-03-05T14:54:20.366Z,100880.50
2023-03-05T14:56:49.842Z,100879.63
2023-03-05T14:59:17.982Z,100873.56
2023-03-05T15:01:45.953Z,100875.25
2023-03-05T15:04:15.535Z,100872.31
2023-03-05T15:06:46.610Z,100862.50
2023-03-05T15:09:17.661Z,100867.34
2023-03-05T15:11:45.429Z,100866.03
2023-03-05T15:14:14.442Z,100856.56
2023-03-05T15:16:45.659Z,100853.56
2023-03-05T15:19:13.964Z,100857.75
2023-03-05T15:21:41.694Z,100850.91
2023-03-05T15:24:11.491Z,100853.94
2023-03-05T15:26:39.357Z,100842.41
2023-03-05T15:29:06.982Z,100847.06
2023-03-05T15:31:38.775Z,100834.72
2023-03-05T15:34:07.203Z,100846.25
2023-03-05T15:36:34.808Z,100844.50
2023-03-05T15:39:02.379Z,100834.72
2023-03-05T15:41:30.121Z,100829.34
2023-03-05T15:43:57.694Z,100828.00
2023-03-05T15:46:25.333Z,100823.75
2023-03-05T15:48:54.493Z,100820.22
2023-03-05T15:51:22.641Z,100813.97
2023-03-05T15:53:50.296Z,100816.84
2023-03-05T15:56:18.324Z,100807.84
2023-03-05T15:58:46.266Z,100807.41
2023-03-05T16:01:15.422Z,100797.00
2023-03-05T16:03:43.044Z,100805.50
2023-03-05T16:06:13.244Z,100801.91
2023-03-05T16:08:43.748Z,100794.31
2023-03-05T16:11:12.137Z,100799.47
2023-03-05T16:13:40.837Z,100794.19
2023-03-05T16:16:10.722Z,100791.97
2023-03-05T16:18:43.056Z,100789.44
2023-03-05T16:21:13.815Z,100776.25
2023-03-05T16:23:41.473Z,100779.34
2023-03-05T16:26:10.508Z,100775.28
2023-03-05T16:28:38.207Z,100771.34
2023-03-05T16:31:06.360Z,100767.50
2023-03-05T16:33:34.019Z,100770.88
2023-03-05T16:36:20.958Z,100762.56
2023-03-05T16:38:49.915Z,100759.19
2023-03-05T16:41:18.671Z,100762.09
2023-03-05T16:43:46.589Z,100759.94
2023-03-05T16:46:15.265Z,100755.97
2023-03-05T16:48:43.521Z,100751.91
2023-03-05T16:51:11.824Z,100754.97
2023-03-05T16:53:41.469Z,100759.94
2023-03-05T16:56:10.329Z,100759.72
2023-03-05T16:58:40.498Z,100751.06
2023-03-05T17:01:12.784Z,100753.72
2023-03-05T17:03:41.643Z,100745.72
2023-03-05T17:06:10.807Z,100752.94
2023-03-05T17:08:39.814Z,100754.22
2023-03-05T17:11:07.767Z,100751.66
2023-03-05T17:13:35.373Z,100748.31
2023-03-05T17:16:03.176Z,100748.63
2023-03-05T17:18:31.193Z,100741.84
2023-03-05T17:20:59.209Z,100738.28
2023-03-05T17:23:26.802Z,100740.94
2023-03-05T17:25:55.986Z,100746.56
2023-03-05T17:28:25.011Z,100747.69
2023-03-05T17:30:52.569Z,100741.38
2023-03-05T17:33:20.250Z,100744.84
2023-03-05T17:35:47.996Z,100749.41
2023-03-05T17:38:15.610Z,100743.47
2023-03-05T17:40:43.330Z,100747.47
2023-03-05T17:43:12.386Z,100745.75
2023-03-05T17:45:40.291Z,100752.44
2023-03-05T17:48:08.450Z,100744.69
2023-03-05T17:50:36.572Z,100747.03
2023-03-05T17:53:05.137Z,100748.81
2023-03-05T17:55:32.777Z,100745.47
2023-03-05T17:58:00.726Z,100744.94
2023-03-05T18:00:31.270Z,100743.81
2023-03-05T18:02:59.580Z,100743.81
2023-03-05T18:05:28.689Z,100746.50
2023-03-05T18:07:57.170Z,100739.59
2023-03-05T18:10:27.039Z,100729.41
2023-03-05T18:12:55.456Z,100730.56
2023-03-05T18:15:31.633Z,100730.38
2023-03-05T18:17:59.558Z,100738.66
2023-03-05T18:20:29.690Z,100734.22
2023-03-05T18:22:58.130Z,100729.97
2023-03-05T18:25:30.794Z,100724.69
2023-03-05T18:27:59.723Z,100717.75
2023-03-05T18:30:28.031Z,100720.38
2023-03-05T18:32:57.571Z,100728.97
2023-03-05T18:35:25.753Z,100722.72
2023-03-05T18:37:53.477Z,100716.25
2023-03-05T18:40:23.405Z,100716.25
2023-03-05T18:42:51.640Z,100705.00
2023-03-05T18:45:21.717Z,100707.66
2023-03-05T18:47:53.932Z,100712.91
2023-03-05T18:50:25.221Z,100703.22
2023-03-05T18:52:53.746Z,100704.88
2023-03-05T18:55:23.595Z,100699.44
2023-03-05T18:57:52.637Z,100702.09
2023-03-05T19:00:22.512Z,100696.50
2023-03-05T19:02:50.258Z,100691.41
2023-03-05T19:05:18.861Z,100692.84
2023-03-05T19:07:48.384Z,100697.44
2023-03-05T19:10:17.564Z,100695.69
2023-03-05T19:12:57.863Z,100691.09
2023-03-05T19:15:25.455Z,100688.47
2023-03-05T19:17:54.872Z,100680.56
2023-03-05T19:20:22.656Z,100686.66
2023-03-05T19:22:51.759Z,100676.25
2023-03-05T19:25:19.700Z,100682.53
2023-03-05T19:27:47.637Z,100679.47
2023-03-05T19:30:16.201Z,100683.91
2023-03-05T19:32:47.008Z,100671.88
2023-03-05T19:35:16.370Z,100677.16
2023-03-05T19:37:45.801Z,100672.34
2023-03-05T19:40:16.220Z,100663.44
2023-03-05T19:42:43.821Z,100662.63
2023-03-05T19:45:11.960Z,100655.72
2023-03-05T19:47:40.349Z,100655.34
2023-03-05T19:50:08.979Z,100654.34
2023-03-05T19:52:36.604Z,100657.13
2023-03-05T19:55:04.315Z,100651.31
2023-03-05T19:57:33.878Z,100659.91
2023-03-05T20:00:01.584Z,100647.19
2023-03-05T20:02:29.705Z,100649.00
2023-03-05T20:04:57.513Z,100646.19
2023-03-05T20:07:25.145Z,100635.81
2023-03-05T20:09:55.276Z,100640.56
2023-03-05T20:12:22.969Z,100636.41
2023-03-05T20:14:52.367Z,100638.22
2023-03-05T20:17:20.494Z,100641.00
2023-03-05T20:19:48.194Z,100641.00
2023-03-05T20:22:15.771Z,100648.91
2023-03-05T20:24:43.537Z,100638.38
2023-03-05T20:27:11.272Z,100630.78
2023-03-05T20:29:39.114Z,100631.91
2023-03-05T20:32:08.232Z,100630.38
2023-03-05T20:34:35.934Z,100628.72
2023-03-05T20:37:05.090Z,100629.84
2023-03-05T20:39:32.700Z,100633.44
2023-03-05T20:42:00.956Z,100634.72
2023-03-05T20:44:28.563Z,100636.78
2023-03-05T20:47:09.900Z,100624.94
2023-03-05T20:49:38.972Z,100628.53
2023-03-05T20:52:06.623Z,100633.13
2023-03-05T20:54:34.218Z,100629.66
2023-03-05T20:57:02.336Z,100627.47
2023-03-05T20:59:29.920Z,100625.94
2023-03-05T21:01:57.578Z,100617.66
2023-03-05T21:04:25.598Z,100618.63
2023-03-05T21:06:54.642Z,100618.50
2023-03-05T21:09:22.423Z,100608.38
2023-03-05T21:11:50.070Z,100607.88
2023-03-05T21:14:17.798Z,100607.88
2023-03-05T21:16:45.459Z,100610.78
2023-03-05T21:19:13.136Z,100599.56
2023-03-05T21:21:44.654Z,100596.81
2023-03-05T21:24:13.863Z,100592.38
2023-03-05T21:26:41.462Z,100595.16
2023-03-05T21:29:09.060Z,100587.13
2023-03-05T21:31:37.366Z,100583.78
2023-03-05T21:34:05.023Z,100592.66
2023-03-05T21:36:32.645Z,100590.03
2023-03-05T21:39:00.718Z,100579.53
2023-03-05T21:41:29.759Z,100581.16
2023-03-05T21:43:58.114Z,100583.38
2023-03-05T21:46:25.816Z,100582.38
2023-03-05T21:48:53.415Z,100573.69
2023-03-05T21:51:26.799Z,100576.31
2023-03-05T21:53:54.372Z,100578.09
2023-03-05T21:56:23.951Z,100573.69
2023-03-05T21:58:53.923Z,100562.47
2023-03-05T22:01:22.396Z,100569.38
2023-03-05T22:03:50.574Z,100565.91
2023-03-05T22:06:20.148Z,100560.81
2023-03-05T22:08:48.359Z,100556.66
2023-03-05T22:11:18.513Z,100558.63
2023-03-05T22:13:46.453Z,100549.75
2023-03-05T22:16:22.232Z,100546.31
2023-03-05T22:18:49.845Z,100542.47
2023-03-05T22:21:19.062Z,100545.50
2023-03-05T22:23:47.345Z,100542.38
2023-03-05T22:26:15.078Z,100536.84
2023-03-05T22:28:43.426Z,100530.50
2023-03-05T22:31:11.228Z,100532.75
2023-03-05T22:33:40.232Z,100533.31
2023-03-05T22:36:09.895Z,100531.13
2023-03-05T22:38:38.288Z,100528.78
2023-03-05T22:41:09.259Z,100534.47
2023-03-05T22:43:37.554Z,100523.41
2023-03-05T22:46:12.635Z,100523.69
2023-03-05T22:48:41.964Z,100523.16
2023-03-05T22:51:11.234Z,100515.84
2023-03-05T22:53:39.422Z,100523.63
2023-03-05T22:56:08.587Z,100510.50
2023-03-05T22:58:36.831Z,100516.47
2023-03-05T23:01:04.727Z,100519.66
2023-03-05T23:03:32.424Z,100520.34
2023-03-05T23:06:01.386Z,100520.91
2023-03-05T23:08:29.229Z,100518.97
2023-03-05T23:10:56.882Z,100517.75
2023-03-05T23:13:24.534Z,100508.63
2023-03-05T23:15:52.641Z,100512.63
2023-03-05T23:18:20.336Z,100529.47
2023-03-05T23:20:47.939Z,100515.25
2023-03-05T23:23:16.991Z,100518.44
2023-03-05T23:25:44.557Z,100513.03
2023-03-05T23:28:12.359Z,100519.53
2023-03-05T23:30:40.217Z,100511.09
2023-03-05T23:33:14.083Z,100519.25
2023-03-05T23:35:44.317Z,100517.84
2023-03-05T23:38:13.984Z,100519.09
2023-03-05T23:40:44.700Z,100510.78
2023-03-05T23:43:12.733Z,100509.41
2023-03-05T23:45:41.699Z,100511.31
2023-03-05T23:48:09.721Z,100506.91
2023-03-05T23:50:40.647Z,100513.00
2023-03-05T23:53:08.703Z,100509.81
2023-03-05T23:55:37.668Z,100508.13
2023-03-05T23:58:07.297Z,100508.84
